createdAt,value
2019-01-21T00:00:47.005Z,-6.30
2019-01-21T00:03:16.675Z,-6.40
2019-01-21T00:05:46.288Z,-6.40
2019-01-21T00:08:15.853Z,-6.40
2019-01-21T00:10:45.490Z,-6.40
2019-01-21T00:13:15.098Z,-6.40
2019-01-21T00:15:44.757Z,-6.40
2019-01-21T00:18:14.409Z,-6.40
2019-01-21T00:20:43.994Z,-6.50
2019-01-21T00:23:13.566Z,-6.50
2019-01-21T00:25:43.135Z,-6.70
2019-01-21T00:28:12.750Z,-6.80
2019-01-21T00:30:45.429Z,-6.80
2019-01-21T00:33:15.043Z,-6.90
2019-01-21T00:35:44.848Z,-6.80
2019-01-21T00:38:33.730Z,-6.80
2019-01-21T00:41:03.351Z,-6.60
2019-01-21T00:43:32.933Z,-6.60
2019-01-21T00:46:02.538Z,-6.60
2019-01-21T00:48:32.145Z,-6.60
2019-01-21T00:51:02.410Z,-6.60
2019-01-21T00:53:31.828Z,-6.60
2019-01-21T00:56:01.437Z,-6.60
2019-01-21T00:58:31.032Z,-6.70
2019-01-21T01:01:00.672Z,-6.60
2019-01-21T01:03:30.382Z,-6.60
2019-01-21T01:05:59.990Z,-6.70
2019-01-21T01:08:29.593Z,-6.70
2019-01-21T01:10:59.206Z,-6.70
2019-01-21T01:13:28.783Z,-6.70
2019-01-21T01:15:58.362Z,-6.80
2019-01-21T01:18:27.938Z,-6.80
2019-01-21T01:20:57.511Z,-6.80
2019-01-21T01:23:27.105Z,-6.80
2019-01-21T01:25:56.974Z,-6.80
2019-01-21T01:28:28.053Z,-6.90
2019-01-21T01:30:57.608Z,-6.90
2019-01-21T01:33:27.307Z,-6.90
2019-01-21T01:35:56.920Z,-7.00
2019-01-21T01:38:26.526Z,-7.10
2019-01-21T01:40:56.144Z,-7.10
2019-01-21T01:43:25.867Z,-7.00
2019-01-21T01:45:55.516Z,-7.10
2019-01-21T01:48:25.343Z,-7.10
2019-01-21T01:50:54.984Z,-7.10
2019-01-21T01:53:24.619Z,-7.10
2019-01-21T01:55:56.351Z,-7.20
2019-01-21T01:58:45.290Z,-7.20
2019-01-21T02:01:14.921Z,-7.20
2019-01-21T02:03:44.759Z,-7.10
2019-01-21T02:06:14.446Z,-7.20
2019-01-21T02:08:44.039Z,-7.10
2019-01-21T02:11:13.767Z,-7.10
2019-01-21T02:13:43.381Z,-7.10
2019-01-21T02:16:13.375Z,-7.10
2019-01-21T02:18:43.002Z,-7.20
2019-01-21T02:21:12.683Z,-7.30
2019-01-21T02:23:45.723Z,-7.40
2019-01-21T02:26:19.019Z,-7.40
2019-01-21T02:28:53.502Z,-7.40
2019-01-21T02:31:27.922Z,-7.40
2019-01-21T02:34:19.797Z,-7.40
2019-01-21T02:36:53.863Z,-7.30
2019-01-21T02:39:45.780Z,-7.30
2019-01-21T02:42:20.094Z,-7.20
2019-01-21T02:44:54.154Z,-7.20
2019-01-21T02:47:28.239Z,-7.40
2019-01-21T02:50:02.283Z,-7.40
2019-01-21T02:52:36.345Z,-7.40
2019-01-21T02:55:10.396Z,-7.50
2019-01-21T02:57:44.435Z,-7.50
2019-01-21T03:00:18.529Z,-7.50
2019-01-21T03:02:52.572Z,-7.40
2019-01-21T03:05:26.647Z,-7.40
2019-01-21T03:08:00.686Z,-7.40
2019-01-21T03:10:35.504Z,-7.40
2019-01-21T03:13:09.571Z,-7.40
2019-01-21T03:15:43.616Z,-7.40
2019-01-21T03:18:35.473Z,-7.50
2019-01-21T03:21:09.936Z,-7.50
2019-01-21T03:23:43.967Z,-7.50
2019-01-21T03:26:18.038Z,-7.50
2019-01-21T03:28:52.058Z,-7.60
2019-01-21T03:31:26.144Z,-7.60
2019-01-21T03:34:00.197Z,-7.50
2019-01-21T03:36:34.257Z,-7.50
2019-01-21T03:39:08.519Z,-7.50
2019-01-21T03:41:42.579Z,-7.50
2019-01-21T03:44:17.005Z,-7.40
2019-01-21T03:46:51.443Z,-7.50
2019-01-21T03:49:25.477Z,-7.40
2019-01-21T03:51:59.596Z,-7.40
2019-01-21T03:54:31.826Z,-7.40
2019-01-21T03:57:06.184Z,-7.40
2019-01-21T03:59:40.259Z,-7.30
2019-01-21T04:02:14.352Z,-7.20
2019-01-21T04:04:48.386Z,-7.20
2019-01-21T04:07:22.465Z,-7.20
2019-01-21T04:09:56.508Z,-7.30
2019-01-21T04:12:30.630Z,-7.30
2019-01-21T04:15:04.658Z,-7.30
2019-01-21T04:17:39.068Z,-7.20
2019-01-21T04:20:13.132Z,-7.00
2019-01-21T04:22:47.216Z,-6.90
2019-01-21T04:25:21.310Z,-6.80
2019-01-21T04:27:55.349Z,-6.70
2019-01-21T04:30:29.402Z,-6.60
2019-01-21T04:33:03.469Z,-6.50
2019-01-21T04:35:37.869Z,-6.30
2019-01-21T04:38:12.305Z,-6.30
2019-01-21T04:40:46.347Z,-6.20
2019-01-21T04:43:20.431Z,-6.10
2019-01-21T04:48:53.928Z,-5.90
2019-01-21T04:51:28.372Z,-5.80
2019-01-21T04:54:02.539Z,-5.80
2019-01-21T04:56:36.608Z,-5.70
2019-01-21T04:59:10.697Z,-5.70
2019-01-21T05:01:45.024Z,-5.60
2019-01-21T05:06:58.846Z,-5.50
2019-01-21T05:09:32.879Z,-5.50
2019-01-21T05:12:06.986Z,-5.40
2019-01-21T05:14:41.081Z,-5.50
2019-01-21T05:17:15.499Z,-5.50
2019-01-21T05:19:49.541Z,-5.40
2019-01-21T05:22:23.610Z,-5.30
2019-01-21T05:24:57.677Z,-5.30
2019-01-21T05:27:31.734Z,-5.20
2019-01-21T05:30:06.187Z,-5.20
2019-01-21T05:32:40.628Z,-5.10
2019-01-21T05:35:14.677Z,-5.10
2019-01-21T05:37:48.765Z,-5.10
2019-01-21T05:40:23.068Z,-5.10
2019-01-21T05:42:57.164Z,-5.20
2019-01-21T05:45:31.224Z,-5.30
2019-01-21T05:48:05.281Z,-5.30
2019-01-21T05:50:39.635Z,-5.30
2019-01-21T05:53:13.693Z,-5.20
2019-01-21T05:55:47.745Z,-5.20
2019-01-21T05:58:39.637Z,-5.20
2019-01-21T06:01:14.058Z,-5.10
2019-01-21T06:03:48.127Z,-5.10
2019-01-21T06:06:22.154Z,-5.10
2019-01-21T06:08:56.272Z,-5.10
2019-01-21T06:11:30.325Z,-5.10
2019-01-21T06:14:04.398Z,-5.00
2019-01-21T06:16:38.448Z,-5.00
2019-01-21T06:19:12.507Z,-4.90
2019-01-21T06:21:46.548Z,-4.90
2019-01-21T06:24:20.625Z,-4.90
2019-01-21T06:26:54.696Z,-4.90
2019-01-21T06:29:28.752Z,-4.80
2019-01-21T06:32:02.836Z,-4.70
2019-01-21T06:34:42.868Z,-4.60
2019-01-21T06:37:16.892Z,-4.60
2019-01-21T06:39:51.364Z,-4.50
2019-01-21T06:42:25.419Z,-4.60
2019-01-21T06:44:59.857Z,-4.60
2019-01-21T06:47:33.887Z,-4.60
2019-01-21T06:50:08.593Z,-4.60
2019-01-21T06:52:42.659Z,-4.50
2019-01-21T06:55:16.762Z,-4.40
2019-01-21T06:57:51.181Z,-4.50
2019-01-21T07:00:25.247Z,-4.50
2019-01-21T07:02:59.290Z,-4.50
2019-01-21T07:05:33.371Z,-4.40
2019-01-21T07:08:07.449Z,-4.30
2019-01-21T07:10:41.770Z,-4.30
2019-01-21T07:13:16.522Z,-4.30
2019-01-21T07:15:50.627Z,-4.30
2019-01-21T07:18:26.063Z,-4.50
2019-01-21T07:21:00.283Z,-4.80
2019-01-21T07:23:35.009Z,-5.00
2019-01-21T07:26:09.060Z,-5.10
2019-01-21T07:28:43.139Z,-5.10
2019-01-21T07:31:17.558Z,-5.20
2019-01-21T07:33:51.753Z,-5.30
2019-01-21T07:36:25.790Z,-5.20
2019-01-21T07:41:38.963Z,-5.20
2019-01-21T07:44:13.008Z,-5.20
2019-01-21T07:46:47.528Z,-5.10
2019-01-21T07:49:21.933Z,-5.10
2019-01-21T07:51:55.987Z,-5.00
2019-01-21T07:54:30.325Z,-5.00
2019-01-21T07:57:10.278Z,-5.00
2019-01-21T07:59:44.374Z,-4.90
2019-01-21T08:02:18.502Z,-4.70
2019-01-21T08:04:52.906Z,-4.60
2019-01-21T08:07:26.939Z,-4.50
2019-01-21T08:10:01.036Z,-4.50
2019-01-21T08:12:35.277Z,-4.40
2019-01-21T08:15:09.360Z,-4.00
2019-01-21T08:17:43.418Z,-3.30
2019-01-21T08:20:17.489Z,-2.80
2019-01-21T08:22:51.925Z,-2.20
2019-01-21T08:25:26.001Z,-2.50
2019-01-21T08:28:00.645Z,-1.70
2019-01-21T08:30:34.654Z,-1.20
2019-01-21T08:33:08.776Z,-0.90
2019-01-21T08:35:42.789Z,-0.60
2019-01-21T08:38:17.588Z,-0.10
2019-01-21T08:40:51.620Z,1.20
2019-01-21T08:43:26.774Z,2.50
2019-01-21T08:46:00.758Z,3.00
2019-01-21T08:48:34.851Z,3.50
2019-01-21T08:51:08.882Z,3.80
2019-01-21T08:53:43.047Z,5.10
2019-01-21T08:56:17.077Z,5.60
2019-01-21T08:58:51.497Z,6.40
2019-01-21T09:01:25.931Z,6.50
2019-01-21T09:06:40.895Z,4.40
2019-01-21T09:09:15.303Z,4.40
2019-01-21T09:11:49.369Z,2.70
2019-01-21T09:14:23.409Z,2.00
2019-01-21T09:16:57.494Z,2.70
2019-01-21T09:19:37.083Z,1.50
2019-01-21T09:22:07.332Z,2.30
2019-01-21T09:24:41.371Z,2.50
2019-01-21T09:27:15.389Z,1.90
2019-01-21T09:29:49.447Z,1.90
2019-01-21T09:32:41.662Z,2.30
2019-01-21T09:35:15.717Z,2.40
2019-01-21T09:37:49.785Z,1.40
2019-01-21T09:40:24.218Z,2.30
2019-01-21T09:42:58.306Z,4.50
2019-01-21T09:45:33.347Z,5.00
2019-01-21T09:50:45.124Z,7.40
2019-01-21T09:53:15.043Z,7.50
2019-01-21T09:55:49.052Z,7.70
2019-01-21T09:58:21.710Z,7.10
2019-01-21T10:00:51.369Z,7.00
2019-01-21T10:03:22.458Z,6.00
2019-01-21T10:05:56.700Z,6.60
2019-01-21T10:08:30.740Z,6.00
2019-01-21T10:11:04.797Z,7.20
2019-01-21T10:13:38.851Z,6.30
2019-01-21T10:16:12.915Z,7.90
2019-01-21T10:18:46.977Z,9.30
2019-01-21T10:21:21.740Z,9.70
2019-01-21T10:26:39.236Z,4.70
2019-01-21T10:29:13.303Z,2.70
2019-01-21T10:31:47.370Z,3.20
2019-01-21T10:37:02.712Z,1.30
2019-01-21T10:42:15.814Z,1.30
2019-01-21T10:44:50.222Z,1.30
2019-01-21T10:47:24.289Z,2.10
2019-01-21T10:49:58.311Z,3.20
2019-01-21T10:52:32.766Z,5.50
2019-01-21T10:57:48.358Z,6.60
2019-01-21T11:00:22.413Z,7.50
2019-01-21T11:02:56.489Z,8.80
2019-01-21T11:05:33.559Z,9.80
2019-01-21T11:08:08.015Z,10.80
2019-01-21T11:10:42.194Z,10.80
2019-01-21T11:13:16.227Z,10.80
2019-01-21T11:15:53.017Z,7.40
2019-01-21T11:18:27.074Z,4.80
2019-01-21T11:21:01.104Z,6.80
2019-01-21T11:23:35.217Z,8.90
2019-01-21T11:26:15.267Z,10.40
2019-01-21T11:28:49.318Z,9.50
2019-01-21T11:31:23.779Z,4.50
2019-01-21T11:33:57.935Z,4.80
2019-01-21T11:36:32.007Z,4.10
2019-01-21T11:39:06.055Z,3.50
2019-01-21T11:41:57.902Z,5.70
2019-01-21T11:44:31.983Z,6.70
2019-01-21T11:47:06.002Z,7.60
2019-01-21T11:49:40.088Z,8.10
2019-01-21T11:52:17.529Z,6.90
2019-01-21T11:54:50.199Z,7.90
2019-01-21T12:00:06.914Z,9.80
2019-01-21T12:02:40.939Z,9.70
2019-01-21T12:05:15.044Z,10.00
2019-01-21T12:07:49.038Z,8.50
2019-01-21T12:10:40.889Z,7.50
2019-01-21T12:13:15.000Z,8.00
2019-01-21T12:15:49.107Z,8.10
2019-01-21T12:18:23.106Z,6.30
2019-01-21T12:21:15.316Z,6.40
2019-01-21T12:23:49.360Z,7.10
2019-01-21T12:26:23.428Z,7.90
2019-01-21T12:28:57.487Z,9.00
2019-01-21T12:34:12.803Z,10.00
2019-01-21T12:36:46.874Z,10.30
2019-01-21T12:39:20.947Z,10.20
2019-01-21T12:41:55.012Z,8.00
2019-01-21T12:44:29.413Z,7.30
2019-01-21T12:47:03.435Z,7.10
2019-01-21T12:49:55.297Z,7.70
2019-01-21T12:52:29.321Z,8.60
2019-01-21T12:55:03.386Z,8.30
2019-01-21T12:57:37.430Z,8.20
2019-01-21T13:00:11.847Z,8.10
2019-01-21T13:02:45.868Z,8.00
2019-01-21T13:05:19.932Z,7.60
2019-01-21T13:08:12.987Z,8.40
2019-01-21T13:10:47.039Z,9.40
2019-01-21T13:13:40.122Z,7.00
2019-01-21T13:16:14.152Z,6.90
2019-01-21T13:18:48.569Z,7.30
2019-01-21T13:21:22.643Z,6.80
2019-01-21T13:23:56.683Z,7.90
2019-01-21T13:26:30.741Z,8.80
2019-01-21T13:29:04.816Z,9.20
2019-01-21T13:31:39.727Z,9.30
2019-01-21T13:34:14.150Z,9.40
2019-01-21T13:36:48.211Z,8.50
2019-01-21T13:39:22.292Z,8.80
2019-01-21T13:41:56.362Z,8.90
2019-01-21T13:44:30.389Z,7.70
2019-01-21T13:47:04.456Z,6.70
2019-01-21T13:49:38.495Z,6.10
2019-01-21T13:52:12.574Z,4.90
2019-01-21T13:54:46.626Z,3.30
2019-01-21T13:57:20.698Z,2.30
2019-01-21T13:59:54.717Z,2.00
2019-01-21T14:02:28.798Z,2.00
2019-01-21T14:07:41.863Z,1.80
2019-01-21T14:10:16.247Z,2.00
2019-01-21T14:12:50.327Z,2.20
2019-01-21T14:15:43.429Z,2.20
2019-01-21T14:20:56.487Z,1.40
2019-01-21T14:23:30.521Z,1.60
2019-01-21T14:26:04.620Z,1.80
2019-01-21T14:28:38.657Z,1.70
2019-01-21T14:31:12.735Z,1.60
2019-01-21T14:33:47.502Z,1.50
2019-01-21T14:36:21.883Z,1.40
2019-01-21T14:38:55.945Z,1.50
2019-01-21T14:41:30.010Z,1.50
2019-01-21T14:46:43.203Z,1.50
2019-01-21T14:49:17.244Z,1.50
2019-01-21T14:51:51.735Z,1.30
2019-01-21T14:54:43.552Z,0.90
2019-01-21T14:59:56.327Z,1.00
2019-01-21T15:02:30.330Z,1.00
2019-01-21T15:05:04.910Z,0.60
2019-01-21T15:07:38.995Z,0.80
2019-01-21T15:10:13.545Z,0.90
2019-01-21T15:13:05.378Z,0.90
2019-01-21T15:18:18.183Z,0.80
2019-01-21T15:20:57.676Z,0.70
2019-01-21T15:23:28.609Z,0.90
2019-01-21T15:26:03.614Z,0.80
2019-01-21T15:28:37.924Z,0.80
2019-01-21T15:31:11.986Z,0.70
2019-01-21T15:36:27.680Z,0.50
2019-01-21T15:39:01.729Z,0.60
2019-01-21T15:41:35.933Z,0.60
2019-01-21T15:44:10.087Z,0.60
2019-01-21T15:46:44.155Z,0.50
2019-01-21T15:49:18.200Z,0.40
2019-01-21T15:52:10.070Z,0.40
2019-01-21T15:54:44.109Z,0.40
2019-01-21T15:57:18.543Z,0.30
2019-01-21T15:59:52.572Z,0.20
2019-01-21T16:02:26.627Z,0.10
2019-01-21T16:05:00.774Z,0.00
2019-01-21T16:07:34.961Z,-0.10
2019-01-21T16:10:08.988Z,-0.20
2019-01-21T16:12:43.068Z,-0.30
2019-01-21T16:15:17.149Z,-0.40
2019-01-21T16:18:08.987Z,-0.50
2019-01-21T16:20:43.053Z,-0.70
2019-01-21T16:23:17.168Z,-0.80
2019-01-21T16:25:50.888Z,-0.90
2019-01-21T16:28:25.005Z,-1.00
2019-01-21T16:30:59.021Z,-1.00
2019-01-21T16:33:33.114Z,-1.10
2019-01-21T16:36:07.176Z,-1.10
2019-01-21T16:38:36.743Z,-1.10
2019-01-21T16:41:10.837Z,-1.20
2019-01-21T16:43:40.474Z,-1.30
2019-01-21T16:46:10.074Z,-1.40
2019-01-21T16:48:39.545Z,-1.60
2019-01-21T16:51:09.208Z,-1.60
2019-01-21T16:53:38.816Z,-1.70
2019-01-21T16:56:08.495Z,-1.70
2019-01-21T16:58:38.056Z,-1.80
2019-01-21T17:01:07.734Z,-1.70
2019-01-21T17:03:41.112Z,-1.80
2019-01-21T17:06:10.681Z,-1.90
2019-01-21T17:08:40.120Z,-2.00
2019-01-21T17:11:09.811Z,-2.00
2019-01-21T17:13:39.475Z,-2.00
2019-01-21T17:16:09.211Z,-2.00
2019-01-21T17:18:38.819Z,-2.00
2019-01-21T17:21:08.486Z,-2.10
2019-01-21T17:23:38.077Z,-2.10
2019-01-21T17:26:08.075Z,-2.20
2019-01-21T17:28:37.679Z,-2.20
2019-01-21T17:31:07.272Z,-2.30
2019-01-21T17:33:36.982Z,-2.30
2019-01-21T17:36:06.641Z,-2.30
2019-01-21T17:38:36.214Z,-2.40
2019-01-21T17:41:06.093Z,-2.40
2019-01-21T17:43:35.681Z,-2.40
2019-01-21T17:46:05.453Z,-2.50
2019-01-21T17:48:35.050Z,-2.50
2019-01-21T17:51:04.618Z,-2.60
2019-01-21T17:53:34.206Z,-2.60
2019-01-21T17:56:03.808Z,-2.70
2019-01-21T17:58:33.380Z,-2.70
2019-01-21T18:01:03.055Z,-2.80
2019-01-21T18:03:32.671Z,-2.90
2019-01-21T18:06:02.231Z,-2.90
2019-01-21T18:08:31.810Z,-3.10
2019-01-21T18:11:01.437Z,-3.10
2019-01-21T18:13:31.012Z,-3.30
2019-01-21T18:16:00.676Z,-3.40
2019-01-21T18:18:30.378Z,-3.50
2019-01-21T18:21:00.003Z,-3.50
2019-01-21T18:23:29.674Z,-3.50
2019-01-21T18:25:59.366Z,-3.50
2019-01-21T18:28:29.024Z,-3.60
2019-01-21T18:30:58.644Z,-3.60
2019-01-21T18:33:28.247Z,-3.60
2019-01-21T18:35:57.817Z,-3.60
2019-01-21T18:38:27.491Z,-3.70
2019-01-21T18:40:57.524Z,-3.70
2019-01-21T18:43:28.015Z,-3.60
2019-01-21T18:45:57.612Z,-3.60
2019-01-21T18:48:27.544Z,-3.60
2019-01-21T18:50:57.217Z,-3.60
2019-01-21T18:53:26.787Z,-3.70
2019-01-21T18:55:56.551Z,-3.80
2019-01-21T18:58:26.144Z,-3.80
2019-01-21T19:00:55.755Z,-3.80
2019-01-21T19:03:25.357Z,-3.90
2019-01-21T19:06:14.209Z,-3.90
2019-01-21T19:08:43.805Z,-3.90
2019-01-21T19:11:13.371Z,-4.10
2019-01-21T19:13:44.437Z,-4.10
2019-01-21T19:16:14.047Z,-4.10
2019-01-21T19:18:43.628Z,-4.10
2019-01-21T19:21:13.237Z,-4.10
2019-01-21T19:23:43.212Z,-4.20
2019-01-21T19:26:32.081Z,-4.20
2019-01-21T19:29:01.720Z,-4.30
2019-01-21T19:31:31.291Z,-4.30
2019-01-21T19:34:00.871Z,-4.30
2019-01-21T19:36:30.531Z,-4.30
2019-01-21T19:39:00.123Z,-4.40
2019-01-21T19:41:29.693Z,-4.40
2019-01-21T19:44:00.082Z,-4.50
2019-01-21T19:46:29.639Z,-4.50
2019-01-21T19:48:59.253Z,-4.50
2019-01-21T19:51:28.880Z,-4.50
2019-01-21T19:53:58.447Z,-4.50
2019-01-21T19:56:28.059Z,-4.60
2019-01-21T19:58:57.662Z,-4.60
2019-01-21T20:01:27.339Z,-4.60
2019-01-21T20:03:56.904Z,-4.60
2019-01-21T20:06:26.528Z,-4.70
2019-01-21T20:08:56.113Z,-4.60
2019-01-21T20:11:25.704Z,-4.70
2019-01-21T20:13:55.330Z,-4.70
2019-01-21T20:16:24.899Z,-4.80
2019-01-21T20:18:54.493Z,-4.80
2019-01-21T20:21:24.090Z,-4.90
2019-01-21T20:23:53.687Z,-4.90
2019-01-21T20:26:23.254Z,-5.00
2019-01-21T20:28:52.856Z,-5.00
2019-01-21T20:31:22.417Z,-5.00
2019-01-21T20:33:52.405Z,-5.10
2019-01-21T20:36:22.552Z,-5.10
2019-01-21T20:38:52.156Z,-5.20
2019-01-21T20:41:21.742Z,-5.20
2019-01-21T20:43:51.364Z,-5.20
2019-01-21T20:46:21.926Z,-5.30
2019-01-21T20:48:51.497Z,-5.30
2019-01-21T20:51:21.124Z,-5.30
2019-01-21T20:53:50.686Z,-5.30
2019-01-21T20:56:39.570Z,-5.30
2019-01-21T20:59:09.217Z,-5.30
2019-01-21T21:01:38.790Z,-5.30
2019-01-21T21:04:14.494Z,-5.40
2019-01-21T21:06:44.063Z,-5.40
2019-01-21T21:09:13.657Z,-5.50
2019-01-21T21:11:43.254Z,-5.50
2019-01-21T21:14:12.829Z,-5.40
2019-01-21T21:16:42.427Z,-5.50
2019-01-21T21:19:12.050Z,-5.50
2019-01-21T21:21:41.642Z,-5.50
2019-01-21T21:24:11.221Z,-5.50
2019-01-21T21:26:40.954Z,-5.50
2019-01-21T21:29:10.567Z,-5.60
2019-01-21T21:31:40.148Z,-5.60
2019-01-21T21:34:09.921Z,-5.70
2019-01-21T21:36:39.517Z,-5.70
2019-01-21T21:39:09.723Z,-5.90
2019-01-21T21:41:39.302Z,-6.00
2019-01-21T21:44:08.928Z,-6.00
2019-01-21T21:46:38.550Z,-6.00
2019-01-21T21:49:08.230Z,-5.90
2019-01-21T21:51:37.649Z,-6.00
2019-01-21T21:54:07.271Z,-6.00
2019-01-21T21:56:36.983Z,-6.10
2019-01-21T21:59:25.852Z,-6.10
2019-01-21T22:01:55.554Z,-6.00
2019-01-21T22:04:25.149Z,-6.00
2019-01-21T22:06:54.859Z,-6.00
2019-01-21T22:09:24.889Z,-6.10
2019-01-21T22:11:54.458Z,-6.10
2019-01-21T22:14:24.099Z,-6.10
2019-01-21T22:16:53.711Z,-6.20
2019-01-21T22:19:23.303Z,-6.30
2019-01-21T22:21:53.299Z,-6.30
2019-01-21T22:24:23.006Z,-6.30
2019-01-21T22:26:52.574Z,-6.30
2019-01-21T22:29:22.141Z,-6.30
2019-01-21T22:31:51.835Z,-6.30
2019-01-21T22:34:21.870Z,-6.30
2019-01-21T22:37:10.737Z,-6.20
2019-01-21T22:39:42.006Z,-6.30
2019-01-21T22:42:11.612Z,-6.30
2019-01-21T22:44:41.209Z,-6.40
2019-01-21T22:47:10.809Z,-6.40
2019-01-21T22:49:40.394Z,-6.40
2019-01-21T22:52:10.310Z,-6.50
2019-01-21T22:54:39.881Z,-6.50
2019-01-21T22:57:09.442Z,-6.60
2019-01-21T22:59:39.040Z,-6.80
2019-01-21T23:02:28.182Z,-6.70
2019-01-21T23:04:58.120Z,-6.70
2019-01-21T23:07:27.701Z,-6.80
2019-01-21T23:09:57.332Z,-6.80
2019-01-21T23:12:27.327Z,-6.80
2019-01-21T23:14:56.931Z,-6.70
2019-01-21T23:17:26.874Z,-6.70
2019-01-21T23:19:56.472Z,-6.70
2019-01-21T23:22:26.035Z,-6.80
2019-01-21T23:24:55.603Z,-6.70
2019-01-21T23:27:25.212Z,-6.70
2019-01-21T23:29:55.190Z,-6.80
2019-01-21T23:32:24.776Z,-6.70
2019-01-21T23:34:54.382Z,-6.80
2019-01-21T23:37:23.952Z,-6.80
2019-01-21T23:39:53.558Z,-6.80
2019-01-21T23:42:23.639Z,-6.90
2019-01-21T23:44:53.247Z,-6.90
2019-01-21T23:47:23.029Z,-6.90
2019-01-21T23:49:52.645Z,-6.90
2019-01-21T23:52:22.208Z,-6.90
2019-01-21T23:54:51.794Z,-7.00
2019-01-21T23:57:21.424Z,-7.00
2019-01-21T23:59:51.015Z,-6.90
